Time;durP1;ratioP1;P1;durP2;ratioP2;P2;SDS_P1;SDS_P2;PMS_P1;PMS_P2;Temp;Humidity;BMP_temperature;BMP_pressure;BME280_temperature;BME280_humidity;BME280_pressure;Samples;Min_cycle;Max_cycle;Signal;HPM_P1;HPM_P2
2021/08/26 00:05:48;;;;;;;35.48;13.48;;;;;;;11.51;72.50;98279.66;2089937;84;21554;-64
2021/08/26 00:08:50;;;;;;;34.43;13.20;;;;;;;11.50;72.60;98277.49;2110011;84;21039;-67
2021/08/26 00:11:53;;;;;;;37.88;13.28;;;;;;;11.52;72.57;98277.38;2110145;84;21553;-67
2021/08/26 00:14:53;;;;;;;33.88;13.18;;;;;;;11.54;72.76;98271.06;2110302;84;21059;-64
2021/08/26 00:17:54;;;;;;;36.45;14.83;;;;;;;11.57;72.86;98264.75;2110186;83;21372;-64
2021/08/26 00:20:54;;;;;;;38.70;13.53;;;;;;;11.59;72.71;98260.21;2110006;84;21030;-64
2021/08/26 00:23:55;;;;;;;36.73;13.95;;;;;;;11.63;72.65;98253.78;2110165;84;21066;-64
2021/08/26 00:26:55;;;;;;;39.50;15.15;;;;;;;11.64;72.78;98248.91;2110050;84;21003;-64
2021/08/26 00:29:55;;;;;;;34.70;13.30;;;;;;;11.65;72.59;98244.02;2110100;84;21019;-66
2021/08/26 00:32:56;;;;;;;35.38;13.45;;;;;;;11.67;72.64;98242.10;2110022;84;21589;-64
2021/08/26 00:35:57;;;;;;;34.23;13.88;;;;;;;11.72;72.57;98238.66;2109916;84;21548;-64
2021/08/26 00:38:58;;;;;;;38.00;14.43;;;;;;;11.77;72.71;98226.00;2110218;84;20994;-66
2021/08/26 00:41:58;;;;;;;38.13;14.87;;;;;;;11.82;72.85;98219.56;2110282;83;21047;-65
2021/08/26 00:44:59;;;;;;;38.13;15.35;;;;;;;11.84;72.77;98211.94;2110365;84;20999;-64
2021/08/26 00:48:02;;;;;;;36.05;14.55;;;;;;;11.87;72.70;98218.27;2110009;83;21054;-64
2021/08/26 00:51:02;;;;;;;32.60;13.10;;;;;;;11.87;72.87;98226.15;2090574;84;21025;-64
2021/08/26 00:54:02;;;;;;;36.38;14.05;;;;;;;11.85;73.14;98218.02;2110017;84;21003;-65
2021/08/26 00:57:03;;;;;;;37.50;13.90;;;;;;;11.85;73.22;98216.70;2110141;84;21577;-64
2021/08/26 01:00:03;;;;;;;37.78;14.43;;;;;;;11.89;73.24;98215.52;2110094;84;21474;-64
2021/08/26 01:03:04;;;;;;;35.63;13.98;;;;;;;11.92;73.41;98207.40;2109946;84;21102;-64
2021/08/26 01:06:04;;;;;;;37.38;15.00;;;;;;;11.94;73.43;98201.59;2109773;84;21003;-66
2021/08/26 01:09:05;;;;;;;35.68;13.48;;;;;;;11.95;73.32;98201.94;2110311;84;20959;-64
2021/08/26 01:12:05;;;;;;;34.05;13.30;;;;;;;11.94;73.45;98193.72;2109982;84;21002;-67
2021/08/26 01:15:06;;;;;;;32.88;13.35;;;;;;;11.95;73.61;98187.02;2110113;84;21047;-64
2021/08/26 01:18:06;;;;;;;36.65;13.25;;;;;;;11.96;73.81;98187.84;2110074;84;21465;-67
2021/08/26 01:21:07;;;;;;;32.17;13.32;;;;;;;11.99;73.69;98182.84;2110122;83;20995;-64
2021/08/26 01:24:07;;;;;;;37.35;13.70;;;;;;;12.01;73.74;98172.58;2110025;83;21038;-65
2021/08/26 01:27:07;;;;;;;35.50;13.25;;;;;;;12.07;73.86;98168.64;2110215;84;21031;-66
2021/08/26 01:30:08;;;;;;;38.55;14.85;;;;;;;12.06;73.96;98163.02;2110152;84;21094;-66
2021/08/26 01:33:08;;;;;;;33.55;14.28;;;;;;;12.02;73.85;98154.52;2110063;84;21066;-66
2021/08/26 01:36:09;;;;;;;30.35;12.20;;;;;;;12.01;74.06;98155.95;2109983;84;21039;-66
2021/08/26 01:39:09;;;;;;;31.90;11.57;;;;;;;12.02;74.04;98145.31;2110090;84;21533;-66
2021/08/26 01:42:09;;;;;;;32.42;13.18;;;;;;;12.05;74.02;98146.88;2110104;84;21030;-66
2021/08/26 01:45:10;;;;;;;31.87;13.30;;;;;;;12.08;74.25;98146.63;2109999;84;21047;-65
2021/08/26 01:48:10;;;;;;;33.90;12.73;;;;;;;12.11;74.15;98145.07;2110204;83;20991;-64
2021/08/26 01:51:11;;;;;;;35.63;13.03;;;;;;;12.12;73.99;98141.50;2109652;84;21069;-66
2021/08/26 01:54:11;;;;;;;36.15;12.65;;;;;;;12.11;73.99;98144.61;2110129;84;21068;-64
2021/08/26 01:57:12;;;;;;;34.45;11.70;;;;;;;12.10;74.22;98136.36;2109906;83;21639;-64
2021/08/26 02:00:12;;;;;;;32.75;12.10;;;;;;;12.14;74.02;98125.14;2109935;84;21039;-64
2021/08/26 02:03:13;;;;;;;31.65;12.35;;;;;;;12.18;73.93;98121.78;2109979;84;21034;-64
2021/08/26 02:06:13;;;;;;;34.50;13.48;;;;;;;12.21;73.99;98118.91;2110206;84;21038;-66
2021/08/26 02:09:14;;;;;;;32.67;13.03;;;;;;;12.24;74.03;98114.71;2109106;84;20971;-64
2021/08/26 02:12:14;;;;;;;33.63;13.62;;;;;;;12.26;73.88;98105.75;2109443;84;20967;-64
2021/08/26 02:15:14;;;;;;;33.15;12.73;;;;;;;12.26;73.89;98107.56;2109349;84;20955;-64
2021/08/26 02:18:15;;;;;;;33.30;11.68;;;;;;;12.25;73.93;98105.88;2109443;84;21442;-64
2021/08/26 02:21:15;;;;;;;30.60;11.20;;;;;;;12.25;73.94;98092.73;2109397;83;20939;-65
2021/08/26 02:24:16;;;;;;;32.63;11.43;;;;;;;12.26;74.02;98093.09;2109356;84;20959;-64
2021/08/26 02:27:16;;;;;;;32.38;12.13;;;;;;;12.29;73.97;98091.04;2109419;84;21002;-64
2021/08/26 02:30:16;;;;;;;31.48;12.82;;;;;;;12.32;74.01;98083.39;2109591;83;20975;-65
2021/08/26 02:33:17;;;;;;;35.45;12.05;;;;;;;12.34;73.97;98085.44;2109470;84;20951;-66
2021/08/26 02:36:17;;;;;;;34.45;13.58;;;;;;;12.35;73.87;98078.38;2109338;84;21512;-64
2021/08/26 02:39:18;;;;;;;31.12;12.37;;;;;;;12.34;73.87;98086.75;2109436;83;21003;-64
2021/08/26 02:42:19;;;;;;;33.30;11.75;;;;;;;12.32;74.04;98082.57;2109773;83;20974;-64
2021/08/26 02:45:19;;;;;;;32.03;12.23;;;;;;;12.31;74.12;98079.08;2109671;83;20967;-66
2021/08/26 02:48:19;;;;;;;31.65;12.25;;;;;;;12.32;74.13;98079.94;2109558;84;21021;-64
2021/08/26 02:51:20;;;;;;;32.13;13.28;;;;;;;12.32;74.07;98080.77;2109265;84;21006;-64
2021/08/26 02:54:20;;;;;;;31.55;12.85;;;;;;;12.32;74.06;98079.94;2109266;84;21552;-66
2021/08/26 02:57:21;;;;;;;33.23;13.13;;;;;;;12.30;74.09;98069.55;2109720;83;21528;-65
2021/08/26 03:00:21;;;;;;;31.95;11.88;;;;;;;12.30;74.20;98072.17;2109491;84;21018;-65
2021/08/26 03:03:22;;;;;;;33.63;13.25;;;;;;;12.30;74.33;98074.80;2109863;83;21018;-64
2021/08/26 03:06:22;;;;;;;31.37;12.85;;;;;;;12.32;74.41;98068.93;2109735;84;21014;-64
2021/08/26 03:09:23;;;;;;;36.05;12.93;;;;;;;12.36;74.38;98066.91;2109523;84;21018;-64
2021/08/26 03:12:23;;;;;;;33.78;14.70;;;;;;;12.36;74.42;98067.73;2109590;84;21018;-66
2021/08/26 03:15:23;;;;;;;32.33;14.25;;;;;;;12.36;74.56;98063.78;2109546;83;21516;-64
2021/08/26 03:18:24;;;;;;;33.53;13.03;;;;;;;12.36;74.59;98056.39;2109512;83;21010;-63
2021/08/26 03:21:25;;;;;;;30.90;11.60;;;;;;;12.36;74.67;98057.21;2109951;83;21118;-64
2021/08/26 03:24:26;;;;;;;33.48;12.23;;;;;;;12.35;74.68;98047.64;2109612;84;21010;-64
2021/08/26 03:27:26;;;;;;;35.52;12.82;;;;;;;12.36;74.73;98045.38;2109824;83;21034;-63
2021/08/26 03:30:26;;;;;;;35.85;14.55;;;;;;;12.38;74.87;98042.13;2109103;84;21508;-64
2021/08/26 03:33:27;;;;;;;33.53;13.48;;;;;;;12.39;74.78;98049.07;2109481;84;20990;-64
2021/08/26 03:36:27;;;;;;;36.60;16.23;;;;;;;12.41;74.72;98042.37;2109719;84;21070;-64
2021/08/26 03:39:28;;;;;;;41.95;15.35;;;;;;;12.40;74.86;98042.03;2109947;84;20975;-66
2021/08/26 03:42:28;;;;;;;33.78;13.13;;;;;;;12.37;74.99;98039.17;2109717;84;20991;-66
2021/08/26 03:45:29;;;;;;;37.50;13.15;;;;;;;12.38;75.05;98043.94;2109896;83;21035;-66
2021/08/26 03:48:29;;;;;;;35.30;14.38;;;;;;;12.40;75.01;98038.91;2109500;84;21528;-66
2021/08/26 03:51:30;;;;;;;35.98;13.65;;;;;;;12.41;75.18;98031.85;2109135;84;21566;-67
2021/08/26 03:54:31;;;;;;;37.85;15.48;;;;;;;12.43;75.11;98033.41;2109475;84;21061;-66
2021/08/26 03:57:31;;;;;;;34.50;14.83;;;;;;;12.45;75.23;98030.16;2109780;83;21010;-66
2021/08/26 04:00:32;;;;;;;35.90;13.85;;;;;;;12.44;75.00;98035.55;2109653;84;21014;-65
2021/08/26 04:03:32;;;;;;;35.48;13.18;;;;;;;12.42;75.09;98029.09;2110276;83;21022;-65
2021/08/26 04:06:33;;;;;;;35.00;14.07;;;;;;;12.46;75.20;98027.06;2109573;84;21522;-66
2021/08/26 04:09:33;;;;;;;34.27;13.30;;;;;;;12.45;75.28;98024.89;2109334;84;21557;-64
2021/08/26 04:12:34;;;;;;;34.20;13.75;;;;;;;12.47;75.33;98030.06;2109879;83;21067;-66
2021/08/26 04:15:34;;;;;;;43.48;14.85;;;;;;;12.46;75.25;98031.01;2109128;84;21029;-64
2021/08/26 04:18:35;;;;;;;37.03;13.75;;;;;;;12.45;75.37;98027.52;2109649;84;20987;-64
2021/08/26 04:21:35;;;;;;;35.23;12.85;;;;;;;12.47;75.45;98028.74;2109858;84;20971;-64
2021/08/26 04:24:36;;;;;;;35.73;12.88;;;;;;;12.47;75.57;98035.32;2109555;84;20986;-64
2021/08/26 04:27:36;;;;;;;37.28;14.05;;;;;;;12.45;75.72;98036.73;2109537;84;21516;-65
2021/08/26 04:30:36;;;;;;;34.70;13.20;;;;;;;12.43;75.91;98048.36;2110341;83;20975;-66
2021/08/26 04:33:37;;;;;;;40.15;13.62;;;;;;;12.44;76.01;98044.28;2109409;84;20971;-67
2021/08/26 04:36:37;;;;;;;38.13;13.83;;;;;;;12.44;75.71;98039.03;2109777;84;20967;-66
2021/08/26 04:39:38;;;;;;;40.20;15.75;;;;;;;12.50;75.99;98036.84;2109616;84;21053;-66
2021/08/26 04:42:38;;;;;;;32.83;13.05;;;;;;;12.52;76.19;98042.83;2109536;83;21100;-66
2021/08/26 04:45:39;;;;;;;39.33;13.62;;;;;;;12.55;76.19;98035.50;2109495;83;20995;-66
2021/08/26 04:48:39;;;;;;;35.52;14.80;;;;;;;12.60;76.76;98033.34;2109569;83;21061;-64
2021/08/26 04:51:40;;;;;;;32.93;14.30;;;;;;;12.59;76.59;98029.53;2109191;84;21502;-64
2021/08/26 04:54:40;;;;;;;39.60;14.83;;;;;;;12.60;76.65;98029.89;2109525;84;21002;-66
2021/08/26 04:57:41;;;;;;;40.05;13.70;;;;;;;12.64;76.87;98028.19;2110194;84;20990;-65
2021/08/26 05:00:41;;;;;;;38.80;14.63;;;;;;;12.68;77.16;98029.25;2109643;84;21046;-64
2021/08/26 05:03:41;;;;;;;33.38;13.72;;;;;;;12.70;77.04;98017.64;2109527;84;21010;-66
2021/08/26 05:06:42;;;;;;;36.40;14.90;;;;;;;12.75;77.10;98015.95;2109457;84;21018;-64
2021/08/26 05:09:42;;;;;;;40.98;17.80;;;;;;;12.78;77.12;98002.53;2110131;84;21553;-63
2021/08/26 05:12:43;;;;;;;39.88;18.75;;;;;;;12.84;77.17;98005.95;2109980;84;21509;-64
2021/08/26 05:15:43;;;;;;;39.35;16.90;;;;;;;12.88;77.43;98004.73;2109979;84;21039;-66
2021/08/26 05:18:44;;;;;;;40.03;17.55;;;;;;;12.89;77.16;98010.86;2110085;84;21043;-64
2021/08/26 05:21:44;;;;;;;36.98;14.63;;;;;;;12.89;77.35;98006.91;2110220;83;20976;-64
2021/08/26 05:24:47;;;;;;;37.10;15.13;;;;;;;12.88;77.48;98002.11;2109977;84;21042;-66
2021/08/26 05:27:47;;;;;;;36.88;15.32;;;;;;;12.90;77.60;98000.20;2090475;84;21062;-63
2021/08/26 05:30:47;;;;;;;35.38;14.73;;;;;;;12.93;77.69;97995.99;2110218;84;20983;-67
2021/08/26 05:33:48;;;;;;;37.60;13.78;;;;;;;12.90;78.09;97995.40;2110115;84;21051;-66
2021/08/26 05:36:48;;;;;;;34.90;12.25;;;;;;;12.86;77.89;97993.52;2109942;84;21509;-66
2021/08/26 05:39:48;;;;;;;34.38;12.80;;;;;;;12.82;78.35;97994.24;2110088;84;21493;-67
2021/08/26 05:42:49;;;;;;;33.00;13.28;;;;;;;12.82;78.52;97994.73;2110100;84;21039;-67
2021/08/26 05:45:50;;;;;;;34.03;14.03;;;;;;;12.84;78.43;97994.11;2110197;84;21070;-67
2021/08/26 05:48:51;;;;;;;35.88;13.98;;;;;;;12.86;78.64;97991.35;2110089;84;20962;-66
2021/08/26 05:51:51;;;;;;;35.28;13.53;;;;;;;12.87;78.67;97993.03;2109640;84;21513;-67
2021/08/26 05:54:52;;;;;;;36.65;13.00;;;;;;;12.88;78.82;97998.16;2110094;84;21050;-66
2021/08/26 05:57:52;;;;;;;31.23;12.23;;;;;;;12.85;78.98;97995.79;2109925;84;21108;-64
2021/08/26 06:00:52;;;;;;;30.15;12.18;;;;;;;12.85;79.43;98001.05;2110109;84;21454;-66
2021/08/26 06:03:53;;;;;;;30.45;11.68;;;;;;;12.87;79.42;98009.64;2109802;84;21026;-64
2021/08/26 06:06:53;;;;;;;32.48;13.00;;;;;;;12.89;79.51;98002.47;2109950;84;21050;-66
2021/08/26 06:09:54;;;;;;;31.68;12.63;;;;;;;12.90;79.48;98004.15;2109427;84;21058;-64
2021/08/26 06:12:54;;;;;;;30.37;11.50;;;;;;;12.92;79.73;98010.11;2109473;84;20979;-63
2021/08/26 06:15:55;;;;;;;33.23;12.07;;;;;;;12.89;79.30;98014.31;2109539;83;20999;-63
2021/08/26 06:18:55;;;;;;;29.87;11.20;;;;;;;12.87;80.08;98020.66;2109573;83;21545;-63
2021/08/26 06:21:55;;;;;;;31.07;12.23;;;;;;;12.88;80.04;98011.81;2110740;84;21426;-63
2021/08/26 06:24:56;;;;;;;33.33;13.55;;;;;;;12.92;80.19;98013.23;2109326;84;21022;-66
2021/08/26 06:27:59;;;;;;;30.75;12.82;;;;;;;12.93;80.37;98016.19;2109705;83;21034;-63
2021/08/26 06:30:59;;;;;;;30.23;12.60;;;;;;;12.95;80.46;98018.23;2090545;84;21627;-65
2021/08/26 06:33:59;;;;;;;30.77;11.40;;;;;;;12.94;80.50;98014.78;2109665;83;20999;-65
2021/08/26 06:37:00;;;;;;;28.85;11.80;;;;;;;12.98;80.14;98015.34;2109788;84;21042;-67
2021/08/26 06:40:00;;;;;;;28.50;11.22;;;;;;;13.01;80.23;98013.77;2109561;83;20955;-66
2021/08/26 06:43:01;;;;;;;35.23;13.15;;;;;;;13.08;80.17;98012.77;2109659;84;20955;-66
2021/08/26 06:46:01;;;;;;;30.62;13.32;;;;;;;13.12;80.15;98022.91;2109668;84;21489;-66
2021/08/26 06:49:02;;;;;;;28.70;11.35;;;;;;;13.13;80.16;98018.01;2110027;84;21062;-64
2021/08/26 06:52:02;;;;;;;31.60;11.38;;;;;;;13.15;80.51;98012.11;2109624;84;21010;-65
2021/08/26 06:55:03;;;;;;;29.32;12.07;;;;;;;13.20;80.11;98012.21;2109454;84;20998;-65
2021/08/26 06:58:03;;;;;;;32.28;13.13;;;;;;;13.26;80.24;98009.05;2109737;83;21031;-65
2021/08/26 07:01:04;;;;;;;33.88;14.03;;;;;;;13.38;80.29;98005.41;2109786;83;20988;-66
2021/08/26 07:04:04;;;;;;;32.13;14.45;;;;;;;13.46;80.18;98006.91;2109631;84;21482;-65
2021/08/26 07:07:04;;;;;;;35.55;16.95;;;;;;;13.45;80.10;98001.28;2109509;84;21480;-66
2021/08/26 07:10:05;;;;;;;33.08;13.95;;;;;;;13.44;80.18;97998.78;2110042;83;21494;-66
2021/08/26 07:13:05;;;;;;;38.28;16.95;;;;;;;13.48;80.13;98002.33;2110109;83;20995;-66
2021/08/26 07:16:06;;;;;;;38.35;16.05;;;;;;;13.57;80.29;97999.88;2110230;83;21047;-66
2021/08/26 07:19:06;;;;;;;36.85;15.75;;;;;;;13.64;80.18;98003.16;2110298;84;20991;-66
2021/08/26 07:22:07;;;;;;;36.25;15.43;;;;;;;13.68;80.19;97997.97;2110111;83;21055;-66
2021/08/26 07:25:07;;;;;;;42.50;14.75;;;;;;;13.72;80.27;97997.24;2110153;83;21034;-66
2021/08/26 07:28:08;;;;;;;38.83;15.28;;;;;;;13.75;80.03;98002.23;2110200;84;21485;-65
2021/08/26 07:31:08;;;;;;;37.65;14.03;;;;;;;13.74;80.26;98003.20;2110198;84;21082;-66
2021/08/26 07:34:09;;;;;;;38.78;14.35;;;;;;;13.76;80.12;97995.98;2109779;84;21047;-66
2021/08/26 07:37:09;;;;;;;41.77;16.20;;;;;;;13.87;80.17;98000.33;2110321;84;20994;-66
2021/08/26 07:40:11;;;;;;;38.42;15.65;;;;;;;14.08;80.46;98000.70;2110306;84;21038;-67
2021/08/26 07:43:14;;;;;;;35.50;13.25;;;;;;;14.23;80.39;97990.63;2110219;84;21034;-64
2021/08/26 07:46:14;;;;;;;38.20;14.60;;;;;;;14.31;79.75;97989.42;2110358;83;21006;-66
2021/08/26 07:49:15;;;;;;;33.75;12.60;;;;;;;14.36;79.87;97993.81;2110176;84;21533;-64
2021/08/26 07:52:16;;;;;;;32.50;12.75;;;;;;;14.43;79.88;97996.25;2110089;84;21042;-66
2021/08/26 07:55:16;;;;;;;29.48;12.03;;;;;;;14.50;79.86;97993.41;2110306;83;20999;-65
2021/08/26 07:58:16;;;;;;;28.27;11.90;;;;;;;14.52;79.37;97998.54;2110405;84;20995;-64
2021/08/26 08:01:17;;;;;;;28.32;11.60;;;;;;;14.42;79.70;97993.25;2110296;84;20987;-66
2021/08/26 08:04:17;;;;;;;28.70;11.38;;;;;;;14.46;80.12;97997.78;2110317;84;20991;-66
2021/08/26 08:07:18;;;;;;;27.30;10.60;;;;;;;14.57;79.91;97992.38;2110180;84;20995;-64
2021/08/26 08:10:18;;;;;;;27.95;10.93;;;;;;;14.69;79.40;97983.84;2110122;84;21580;-64
2021/08/26 08:13:18;;;;;;;32.33;12.60;;;;;;;14.86;79.81;97983.63;2110180;84;21468;-67
2021/08/26 08:16:19;;;;;;;26.95;11.20;;;;;;;14.99;79.73;97981.51;2110100;84;21031;-66
2021/08/26 08:19:20;;;;;;;30.20;10.93;;;;;;;15.04;79.05;97978.44;2109716;84;21011;-66
2021/08/26 08:22:20;;;;;;;29.70;11.88;;;;;;;15.04;79.25;97976.65;2110301;84;20998;-66
2021/08/26 08:25:20;;;;;;;29.77;12.15;;;;;;;15.02;79.42;97978.58;2110051;84;21063;-66
2021/08/26 08:28:21;;;;;;;28.40;12.13;;;;;;;14.98;79.36;97977.19;2110155;84;21010;-67
2021/08/26 08:31:21;;;;;;;26.05;11.03;;;;;;;15.00;79.46;97975.77;2110022;84;21596;-66
2021/08/26 08:34:22;;;;;;;26.75;11.50;;;;;;;14.97;79.83;97974.70;2109739;84;21018;-65
2021/08/26 08:37:22;;;;;;;27.60;10.38;;;;;;;15.01;79.93;97971.66;2110115;84;21011;-64
2021/08/26 08:40:23;;;;;;;27.55;10.98;;;;;;;15.04;79.51;97972.69;2110056;84;21059;-66
2021/08/26 08:43:23;;;;;;;29.85;11.68;;;;;;;15.10;79.84;97979.20;2110214;84;20983;-64
2021/08/26 08:46:23;;;;;;;27.85;10.93;;;;;;;15.12;79.23;97977.73;2110402;84;21090;-64
2021/08/26 08:49:24;;;;;;;28.38;12.40;;;;;;;15.01;79.65;97976.08;2110132;84;20995;-64
2021/08/26 08:52:24;;;;;;;29.25;11.18;;;;;;;14.94;79.83;97973.66;2110137;84;21615;-67
2021/08/26 08:55:25;;;;;;;26.15;11.05;;;;;;;14.79;79.94;97978.56;2110016;83;21481;-64
2021/08/26 08:58:25;;;;;;;28.17;11.53;;;;;;;14.70;80.34;97973.64;2109995;84;21042;-63
2021/08/26 09:01:26;;;;;;;26.42;10.55;;;;;;;14.72;80.48;97975.64;2110152;84;21025;-64
2021/08/26 09:04:27;;;;;;;26.50;11.73;;;;;;;14.73;80.94;97979.46;2110098;84;21047;-66
2021/08/26 09:07:27;;;;;;;27.52;11.68;;;;;;;14.76;81.03;97984.95;2109999;84;20998;-66
2021/08/26 09:10:28;;;;;;;33.05;13.50;;;;;;;14.76;80.60;97982.31;2109306;84;21522;-66
2021/08/26 09:13:28;;;;;;;28.38;11.97;;;;;;;14.80;81.02;97976.28;2109433;84;21031;-63
2021/08/26 09:16:28;;;;;;;27.40;11.08;;;;;;;14.86;80.88;97977.84;2109592;83;21056;-64
2021/08/26 09:19:30;;;;;;;24.72;9.65;;;;;;;14.93;80.79;97985.19;2109693;84;20975;-66
2021/08/26 09:22:31;;;;;;;28.33;11.30;;;;;;;14.90;80.59;97977.91;2109809;83;21021;-64
2021/08/26 09:25:33;;;;;;;25.53;11.27;;;;;;;14.84;80.95;97990.84;2110319;83;22262;-65
2021/08/26 09:28:34;;;;;;;25.40;11.15;;;;;;;14.78;81.17;97984.31;2109572;83;21035;-64
2021/08/26 09:31:34;;;;;;;26.50;10.98;;;;;;;14.75;81.16;97993.02;2110652;83;21039;-65
2021/08/26 09:34:35;;;;;;;25.27;10.48;;;;;;;14.63;81.51;97987.88;2109390;84;21545;-64
2021/08/26 09:37:35;;;;;;;23.55;9.90;;;;;;;14.59;81.62;97994.38;2109335;84;21003;-64
2021/08/26 09:40:36;;;;;;;23.12;9.55;;;;;;;14.65;82.09;97991.69;2109111;84;21003;-64
2021/08/26 09:43:36;;;;;;;25.00;9.68;;;;;;;14.69;81.63;97975.93;2109418;83;20986;-64
2021/08/26 09:46:37;;;;;;;23.42;9.93;;;;;;;14.66;81.91;97986.77;2109456;84;20991;-64
2021/08/26 09:49:39;;;;;;;26.35;10.32;;;;;;;14.66;81.91;97985.45;2109628;84;20994;-64
2021/08/26 09:52:39;;;;;;;22.90;9.60;;;;;;;14.78;82.06;97982.99;2109709;84;21110;-65
2021/08/26 09:55:40;;;;;;;21.73;8.60;;;;;;;14.97;81.92;97982.62;2109204;84;21031;-65
2021/08/26 09:58:40;;;;;;;21.60;9.08;;;;;;;15.12;81.14;97977.73;2109394;84;21040;-65
2021/08/26 10:01:40;;;;;;;38.25;10.78;;;;;;;15.03;80.80;97979.43;2109611;84;21031;-64
2021/08/26 10:04:41;;;;;;;24.05;10.30;;;;;;;14.90;81.50;97984.52;2109507;84;21316;-65
2021/08/26 10:07:41;;;;;;;24.70;9.18;;;;;;;14.86;81.78;97984.45;2109916;84;21588;-64
2021/08/26 10:10:42;;;;;;;24.50;8.60;;;;;;;14.83;81.77;97990.52;2109378;84;21553;-64
2021/08/26 10:13:42;;;;;;;21.82;7.87;;;;;;;14.79;81.83;97986.48;2109535;84;20990;-65
2021/08/26 10:16:43;;;;;;;24.63;9.10;;;;;;;14.84;82.23;97982.92;2109913;83;21022;-63
2021/08/26 10:19:43;;;;;;;23.25;8.23;;;;;;;14.88;82.52;97986.48;2109633;84;20995;-64
2021/08/26 10:22:43;;;;;;;23.25;8.65;;;;;;;14.88;82.60;97986.95;2109965;83;21027;-64
2021/08/26 10:25:44;;;;;;;21.42;7.97;;;;;;;14.83;82.74;97985.23;2109651;84;20983;-64
2021/08/26 10:28:45;;;;;;;21.00;6.87;;;;;;;14.86;82.54;97983.13;2109660;84;21461;-65
2021/08/26 10:31:45;;;;;;;22.40;7.17;;;;;;;14.84;82.32;97983.77;2109526;84;21023;-64
2021/08/26 10:34:46;;;;;;;21.30;7.37;;;;;;;14.89;82.49;97982.02;2109447;84;21058;-64
2021/08/26 10:37:49;;;;;;;19.92;7.58;;;;;;;14.96;82.44;97973.05;2109903;83;20995;-64
2021/08/26 10:40:49;;;;;;;20.15;7.12;;;;;;;15.09;82.27;97976.70;2091091;84;21039;-66
2021/08/26 10:43:50;;;;;;;18.55;5.83;;;;;;;15.13;81.76;97978.91;2110356;84;20998;-64
2021/08/26 10:46:50;;;;;;;19.15;5.95;;;;;;;15.14;81.34;97977.09;2109647;84;20967;-64
2021/08/26 10:49:51;;;;;;;20.57;6.60;;;;;;;15.18;81.67;97979.30;2109476;84;21494;-64
2021/08/26 10:52:51;;;;;;;19.70;6.55;;;;;;;15.27;81.82;97987.34;2109499;84;21010;-64
2021/08/26 10:55:52;;;;;;;24.15;8.48;;;;;;;15.46;81.06;97982.48;2109177;84;21067;-64
2021/08/26 10:58:53;;;;;;;21.25;6.90;;;;;;;15.68;81.46;97977.32;2109658;84;20975;-65
2021/08/26 11:01:53;;;;;;;16.60;5.90;;;;;;;15.96;80.12;97971.57;2109511;84;21006;-66
2021/08/26 11:04:54;;;;;;;16.52;5.55;;;;;;;16.16;79.32;97970.11;2109683;83;21477;-67
2021/08/26 11:07:54;;;;;;;18.05;6.12;;;;;;;16.22;78.88;97967.70;2109573;84;21488;-64
2021/08/26 11:10:54;;;;;;;23.52;7.33;;;;;;;16.27;79.43;97973.86;2111186;83;21006;-64
2021/08/26 11:13:55;;;;;;;19.50;6.47;;;;;;;16.41;79.47;97971.19;2110243;84;21084;-66
2021/08/26 11:16:55;;;;;;;18.05;5.65;;;;;;;16.47;78.46;97967.10;2110344;84;20986;-66
2021/08/26 11:19:56;;;;;;;18.77;6.75;;;;;;;16.50;78.26;97970.27;2110177;84;20991;-66
2021/08/26 11:22:56;;;;;;;18.30;5.90;;;;;;;16.49;78.12;97979.17;2110220;84;21082;-66
2021/08/26 11:25:56;;;;;;;17.92;5.72;;;;;;;16.43;77.91;97974.50;2110220;84;21485;-66
2021/08/26 11:28:57;;;;;;;20.55;6.83;;;;;;;16.41;76.06;97977.80;2110049;84;21003;-66
2021/08/26 11:31:58;;;;;;;19.57;6.00;;;;;;;16.33;77.81;97971.92;2110063;84;21070;-66
2021/08/26 11:34:59;;;;;;;18.47;6.53;;;;;;;16.43;76.87;97981.11;2110246;84;21038;-66
2021/08/26 11:37:59;;;;;;;17.42;6.55;;;;;;;16.49;76.81;97982.33;2110062;84;21125;-67
2021/08/26 11:40:59;;;;;;;16.65;6.10;;;;;;;16.52;77.35;97976.72;2110220;84;21545;-66
2021/08/26 11:44:00;;;;;;;18.57;6.55;;;;;;;16.53;77.15;97974.42;2110090;84;21066;-66
2021/08/26 11:47:00;;;;;;;16.97;6.78;;;;;;;16.60;77.32;97976.80;2110068;83;21022;-65
2021/08/26 11:50:01;;;;;;;18.92;6.90;;;;;;;16.71;76.07;97973.09;2110276;84;21379;-66
2021/08/26 11:53:01;;;;;;;19.37;6.92;;;;;;;16.73;74.72;97973.77;2110339;84;21014;-67
2021/08/26 11:56:02;;;;;;;19.48;7.53;;;;;;;16.84;75.04;97980.61;2110100;84;21007;-67
2021/08/26 11:59:02;;;;;;;19.90;7.95;;;;;;;16.83;75.69;97978.47;2109832;84;21532;-64
2021/08/26 12:02:02;;;;;;;20.17;7.95;;;;;;;16.99;75.67;97976.46;2110063;84;21522;-65
2021/08/26 12:05:03;;;;;;;20.65;8.30;;;;;;;17.02;75.39;97976.66;2110085;84;20979;-66
2021/08/26 12:08:03;;;;;;;20.32;8.10;;;;;;;17.19;74.80;97976.27;2110053;83;21082;-66
2021/08/26 12:11:04;;;;;;;23.90;9.28;;;;;;;17.24;74.38;97977.94;2109807;84;21011;-65
2021/08/26 12:14:05;;;;;;;20.70;8.03;;;;;;;17.13;73.69;97975.89;2109760;84;20983;-67
2021/08/26 12:17:06;;;;;;;21.87;8.03;;;;;;;17.19;74.60;97977.59;2109866;84;21441;-66
2021/08/26 12:20:07;;;;;;;19.35;7.03;;;;;;;17.40;74.40;97977.22;2109766;84;21018;-66
2021/08/26 12:23:07;;;;;;;20.35;7.37;;;;;;;17.72;73.43;97979.69;2110000;84;20991;-66
2021/08/26 12:26:08;;;;;;;20.77;8.20;;;;;;;17.66;72.63;97970.03;2109727;84;21079;-66
2021/08/26 12:29:08;;;;;;;20.12;7.28;;;;;;;17.78;73.48;97977.70;2109822;84;20963;-67
2021/08/26 12:32:09;;;;;;;20.50;7.80;;;;;;;17.86;72.52;97973.77;2109806;84;21573;-67
2021/08/26 12:35:09;;;;;;;18.92;6.67;;;;;;;17.98;72.13;97966.37;2109542;84;21486;-66
2021/08/26 12:38:10;;;;;;;17.23;5.40;;;;;;;18.03;71.89;97968.05;2109764;84;20987;-67
2021/08/26 12:41:10;;;;;;;15.15;5.30;;;;;;;18.13;71.51;97968.73;2109416;84;21042;-67
2021/08/26 12:44:11;;;;;;;15.98;5.75;;;;;;;18.37;70.53;97962.30;2109843;84;21002;-66
2021/08/26 12:47:12;;;;;;;18.37;6.80;;;;;;;18.41;70.31;97960.47;2109802;84;21113;-67
2021/08/26 12:50:13;;;;;;;17.45;5.92;;;;;;;18.40;70.58;97957.47;2109891;84;20994;-65
2021/08/26 12:53:14;;;;;;;18.65;6.15;;;;;;;18.27;69.75;97954.48;2109705;84;21061;-66
2021/08/26 12:56:14;;;;;;;18.80;6.87;;;;;;;18.09;70.15;97955.96;2109820;84;21010;-65
2021/08/26 12:59:14;;;;;;;17.85;6.42;;;;;;;17.95;70.94;97958.23;2109680;84;21078;-66
2021/08/26 13:02:15;;;;;;;18.00;6.67;;;;;;;17.88;70.98;97956.36;2109938;84;21049;-67
2021/08/26 13:05:16;;;;;;;16.85;6.22;;;;;;;17.81;71.23;97951.71;2109653;84;20991;-65
2021/08/26 13:08:18;;;;;;;19.98;7.83;;;;;;;17.84;70.95;97949.20;2089961;84;21046;-65
2021/08/26 13:11:19;;;;;;;20.75;8.33;;;;;;;17.87;70.58;97930.82;2109287;84;21555;-67
2021/08/26 13:14:20;;;;;;;22.55;8.58;;;;;;;17.93;71.10;97945.64;2109338;84;21019;-66
2021/08/26 13:17:20;;;;;;;21.42;8.88;;;;;;;18.05;71.17;97929.41;2109351;84;20967;-65
2021/08/26 13:20:20;;;;;;;20.12;8.03;;;;;;;18.12;70.39;97935.73;2109637;84;20990;-66
2021/08/26 13:23:22;;;;;;;21.17;9.50;;;;;;;18.07;69.89;97931.39;2109184;84;21376;-65
2021/08/26 13:26:23;;;;;;;21.20;8.80;;;;;;;18.02;70.01;97940.36;2109587;84;21026;-66
2021/08/26 13:29:24;;;;;;;22.65;9.55;;;;;;;17.98;69.31;97941.16;2109461;84;21030;-66
2021/08/26 13:32:25;;;;;;;23.45;10.65;;;;;;;17.88;69.76;97943.92;2109463;84;21034;-66
2021/08/26 13:35:25;;;;;;;23.22;9.70;;;;;;;17.92;70.25;97934.69;2109349;84;21529;-67
2021/08/26 13:38:25;;;;;;;21.73;9.25;;;;;;;18.06;69.89;97926.59;2109340;84;20986;-67
2021/08/26 13:41:26;;;;;;;19.92;8.33;;;;;;;18.14;69.47;97920.45;2109360;84;21037;-66
2021/08/26 13:44:26;;;;;;;22.75;9.95;;;;;;;18.08;69.35;97919.80;2109681;84;21039;-65
2021/08/26 13:47:27;;;;;;;20.25;8.20;;;;;;;18.21;70.41;97916.16;2109584;84;20991;-67
2021/08/26 13:50:27;;;;;;;22.58;8.95;;;;;;;18.35;69.13;97923.47;2109100;84;21058;-67
2021/08/26 13:53:28;;;;;;;20.77;8.35;;;;;;;18.58;69.35;97906.06;2109492;84;21027;-65
2021/08/26 13:56:28;;;;;;;21.85;8.70;;;;;;;18.81;69.05;97907.02;2109377;84;21549;-67